Time;durP1;ratioP1;P1;durP2;ratioP2;P2;SDS_P1;SDS_P2;PMS_P1;PMS_P2;Temp;Humidity;BMP_temperature;BMP_pressure;BME280_temperature;BME280_humidity;BME280_pressure;Samples;Min_cycle;Max_cycle;Signal;HPM_P1;HPM_P2
2022/12/18 00:01:59;;;;;;;74.43;39.30;;;-1.40;99.90;;;;;;5055458;28;20044;-84
2022/12/18 00:04:25;;;;;;;71.05;38.70;;;-1.40;99.90;;;;;;5039633;28;20146;-83
2022/12/18 00:06:52;;;;;;;70.75;38.13;;;-1.40;99.90;;;;;;5038778;28;20049;-84
2022/12/18 00:09:18;;;;;;;73.18;39.03;;;-1.40;99.90;;;;;;5072899;28;20128;-84
2022/12/18 00:11:44;;;;;;;72.80;38.22;;;-1.50;99.90;;;;;;5055537;28;20041;-84
2022/12/18 00:14:12;;;;;;;70.00;38.50;;;-1.50;99.90;;;;;;5039469;28;20051;-84
2022/12/18 00:16:38;;;;;;;74.70;37.92;;;-1.60;99.90;;;;;;5055462;28;20072;-83
2022/12/18 00:19:05;;;;;;;75.32;39.72;;;-1.50;99.90;;;;;;5054711;28;20476;-84
2022/12/18 00:21:32;;;;;;;76.50;40.42;;;-1.50;99.90;;;;;;5073013;28;20055;-84
2022/12/18 00:23:59;;;;;;;71.68;37.70;;;-1.60;99.90;;;;;;5038850;28;20044;-84
2022/12/18 00:26:28;;;;;;;78.75;39.92;;;-1.50;99.90;;;;;;5022461;28;20048;-84
2022/12/18 00:28:55;;;;;;;79.07;39.80;;;-1.60;99.90;;;;;;5055205;28;20048;-84
2022/12/18 00:31:23;;;;;;;74.97;39.08;;;-1.50;99.90;;;;;;5038730;28;20055;-84
2022/12/18 00:33:49;;;;;;;83.43;39.00;;;-1.50;99.90;;;;;;5055155;28;20113;-84
2022/12/18 00:36:20;;;;;;;78.50;37.47;;;-1.60;99.90;;;;;;5022084;28;20048;-84
2022/12/18 00:38:47;;;;;;;76.03;38.20;;;-1.60;99.90;;;;;;5055645;28;20049;-84
2022/12/18 00:42:55;;;;;;;71.88;38.75;;;-1.60;99.90;;;;;;5055045;28;20052;-84
2022/12/18 00:44:01;;;;;;;77.82;39.25;;;-1.60;99.90;;;;;;5054773;28;20151;-84
2022/12/18 00:46:27;;;;;;;77.45;37.95;;;-1.50;99.90;;;;;;5073538;28;20061;-84
2022/12/18 00:48:53;;;;;;;79.70;39.47;;;-1.60;99.90;;;;;;5054875;28;20040;-84
2022/12/18 00:51:18;;;;;;;75.20;37.80;;;-1.50;99.90;;;;;;5072683;28;20052;-84
2022/12/18 00:53:44;;;;;;;69.00;36.00;;;-1.60;99.90;;;;;;5055714;28;20088;-84
2022/12/18 00:56:10;;;;;;;75.20;38.60;;;-1.70;99.90;;;;;;5058560;28;20040;-84
2022/12/18 00:58:35;;;;;;;73.17;38.40;;;-1.70;99.90;;;;;;5058979;28;20047;-84
2022/12/18 01:01:03;;;;;;;76.73;37.20;;;-1.70;99.90;;;;;;5042724;28;20402;-84
2022/12/18 01:03:28;;;;;;;79.07;37.15;;;-1.70;99.90;;;;;;5042085;28;20047;-84
2022/12/18 01:05:54;;;;;;;77.20;36.93;;;-1.80;99.90;;;;;;5041853;28;20135;-84
2022/12/18 01:08:20;;;;;;;74.63;35.93;;;-1.80;99.90;;;;;;5025090;28;20040;-84
2022/12/18 01:10:46;;;;;;;75.70;37.40;;;-1.80;99.90;;;;;;5058571;28;20047;-84
2022/12/18 01:13:11;;;;;;;70.40;35.63;;;-1.80;99.90;;;;;;5058002;28;20128;-84
2022/12/18 01:15:37;;;;;;;74.83;37.63;;;-1.90;99.90;;;;;;5058233;28;20131;-84
2022/12/18 01:18:03;;;;;;;73.70;36.10;;;-1.90;99.90;;;;;;5041581;28;20055;-84
2022/12/18 01:20:28;;;;;;;71.60;35.63;;;-1.80;99.90;;;;;;5058825;28;20422;-85
2022/12/18 01:22:54;;;;;;;68.13;35.20;;;-1.80;99.90;;;;;;5024651;28;20450;-84
2022/12/18 01:25:20;;;;;;;77.93;37.13;;;-1.80;99.90;;;;;;5075439;28;20058;-84
2022/12/18 01:27:45;;;;;;;72.43;36.83;;;-1.80;99.90;;;;;;5058185;28;20090;-84
2022/12/18 01:30:11;;;;;;;71.10;34.87;;;-1.80;99.90;;;;;;5025206;28;20380;-84
2022/12/18 01:32:37;;;;;;;69.32;34.67;;;-1.80;99.90;;;;;;5058063;28;20045;-84
2022/12/18 01:35:03;;;;;;;72.33;34.57;;;-1.90;99.90;;;;;;5057738;28;20132;-84
2022/12/18 01:37:29;;;;;;;69.82;34.67;;;-1.90;99.90;;;;;;5075510;28;20473;-84
2022/12/18 01:39:55;;;;;;;72.53;34.13;;;-2.00;99.90;;;;;;5057049;28;20098;-84
2022/12/18 01:42:21;;;;;;;64.60;31.13;;;-2.10;99.90;;;;;;5057961;28;20044;-84
2022/12/18 01:44:47;;;;;;;67.88;35.00;;;-2.00;99.90;;;;;;5057705;28;20076;-84
2022/12/18 01:47:27;;;;;;;66.97;34.03;;;-2.00;99.90;;;;;;5057470;28;20055;-84
2022/12/18 01:49:54;;;;;;;64.78;32.47;;;-2.00;99.90;;;;;;5058114;28;20108;-84
2022/12/18 01:52:21;;;;;;;67.50;31.88;;;-2.00;99.90;;;;;;5040837;28;20151;-84
2022/12/18 01:54:49;;;;;;;65.45;33.42;;;-2.00;99.90;;;;;;5041031;28;20388;-84
2022/12/18 01:57:15;;;;;;;65.63;34.05;;;-2.10;99.90;;;;;;5058168;28;20048;-84
2022/12/18 01:59:44;;;;;;;63.60;31.33;;;-2.10;99.90;;;;;;5040817;28;20054;-84
2022/12/18 02:02:11;;;;;;;65.18;34.85;;;-2.00;99.90;;;;;;5057284;28;20298;-84
2022/12/18 02:04:36;;;;;;;67.32;33.22;;;-2.10;99.90;;;;;;5074823;28;20052;-84
2022/12/18 02:07:36;;;;;;;65.50;32.03;;;-2.10;99.90;;;;;;5024465;28;20055;-84
2022/12/18 02:10:15;;;;;;;69.22;33.45;;;-2.20;99.90;;;;;;5056870;28;20052;-84
2022/12/18 02:12:43;;;;;;;68.82;34.30;;;-2.20;99.90;;;;;;5057422;28;20130;-84
2022/12/18 02:15:15;;;;;;;69.05;33.08;;;-2.20;99.90;;;;;;5057938;28;20056;-83
2022/12/18 02:18:33;;;;;;;59.85;32.08;;;-2.20;99.90;;;;;;5057369;28;20048;-84
2022/12/18 02:21:27;;;;;;;64.13;32.20;;;-2.30;99.90;;;;;;5000854;28;20056;-83
2022/12/18 02:24:11;;;;;;;63.28;30.98;;;-2.40;99.90;;;;;;5075378;28;20040;-84
2022/12/18 02:26:44;;;;;;;66.72;33.45;;;-2.40;99.90;;;;;;5057729;28;20041;-83
2022/12/18 02:29:17;;;;;;;64.70;32.85;;;-2.40;99.90;;;;;;5057328;28;20483;-83
2022/12/18 02:31:48;;;;;;;66.53;32.97;;;-2.40;99.90;;;;;;5057096;28;20048;-84
2022/12/18 02:34:16;;;;;;;62.63;32.20;;;-2.40;99.90;;;;;;5040913;28;20107;-83
2022/12/18 02:36:45;;;;;;;64.47;32.80;;;-2.40;99.90;;;;;;5056884;28;20117;-83
2022/12/18 02:39:13;;;;;;;64.40;32.90;;;-2.40;99.90;;;;;;5055983;28;20113;-83
2022/12/18 02:41:39;;;;;;;60.67;31.92;;;-2.40;99.90;;;;;;5056825;28;20044;-84
2022/12/18 02:44:11;;;;;;;61.15;32.08;;;-2.50;99.90;;;;;;5056548;28;20523;-84
2022/12/18 02:46:44;;;;;;;58.40;32.22;;;-2.50;99.90;;;;;;5057183;28;20128;-83
2022/12/18 02:49:29;;;;;;;61.75;32.67;;;-2.50;99.90;;;;;;5039755;28;20037;-83
2022/12/18 02:52:07;;;;;;;65.32;33.17;;;-2.50;99.90;;;;;;5056837;28;20052;-83
2022/12/18 02:54:51;;;;;;;64.22;33.20;;;-2.50;99.90;;;;;;5057097;28;20044;-83
2022/12/18 02:57:23;;;;;;;63.38;31.23;;;-2.50;99.90;;;;;;5057178;28;20131;-83
2022/12/18 03:00:15;;;;;;;63.88;33.38;;;-2.60;99.90;;;;;;5056479;28;20052;-83
2022/12/18 03:03:11;;;;;;;65.88;31.60;;;-2.60;99.90;;;;;;5056649;28;20044;-83
2022/12/18 03:05:50;;;;;;;65.40;31.95;;;-2.60;99.90;;;;;;5074794;28;20123;-83
2022/12/18 03:08:20;;;;;;;63.53;31.30;;;-1.90;99.90;;;;;;5056453;28;20033;-83
2022/12/18 03:10:53;;;;;;;63.33;32.47;;;-2.70;99.90;;;;;;5056887;28;20118;-83
2022/12/18 03:13:32;;;;;;;64.78;33.10;;;-2.60;99.90;;;;;;5057029;28;20044;-83
2022/12/18 03:15:59;;;;;;;62.00;31.83;;;-2.40;99.90;;;;;;5039744;28;20060;-83
2022/12/18 03:18:32;;;;;;;67.53;35.03;;;-2.70;99.90;;;;;;5074249;28;20049;-83
2022/12/18 03:21:03;;;;;;;60.40;32.83;;;-2.40;99.90;;;;;;5056809;28;20144;-83
2022/12/18 03:23:35;;;;;;;67.22;33.03;;;-2.50;99.90;;;;;;5055906;28;20503;-83
2022/12/18 03:26:07;;;;;;;66.70;33.10;;;-2.80;99.90;;;;;;5073710;28;20089;-82
2022/12/18 03:28:38;;;;;;;61.70;32.25;;;-2.80;99.90;;;;;;5055572;28;20098;-82
2022/12/18 03:31:06;;;;;;;64.47;33.63;;;-2.80;99.90;;;;;;5039447;28;20075;-82
2022/12/18 03:33:40;;;;;;;64.05;32.85;;;-2.80;99.90;;;;;;5056549;28;20100;-83
2022/12/18 03:36:06;;;;;;;69.97;34.88;;;-2.80;99.90;;;;;;5056021;28;20049;-82
2022/12/18 03:38:32;;;;;;;68.78;34.97;;;-2.80;99.90;;;;;;5055444;28;20060;-83
2022/12/18 03:41:10;;;;;;;63.10;33.30;;;-2.80;99.90;;;;;;5039029;28;20059;-82
2022/12/18 03:43:46;;;;;;;73.43;35.25;;;-2.90;99.90;;;;;;5039162;28;20055;-83
2022/12/18 03:46:27;;;;;;;65.80;35.25;;;-2.90;99.90;;;;;;5055918;28;20056;-82
2022/12/18 03:48:58;;;;;;;64.75;33.35;;;-2.90;99.90;;;;;;5056178;28;20045;-83
2022/12/18 03:51:36;;;;;;;67.00;34.15;;;-2.90;99.90;;;;;;5055878;28;20040;-83
2022/12/18 03:54:04;;;;;;;69.15;33.28;;;-2.90;99.90;;;;;;5055646;28;20060;-82
2022/12/18 03:56:35;;;;;;;71.32;35.58;;;-2.90;99.90;;;;;;5055474;28;20488;-83
2022/12/18 03:59:03;;;;;;;67.90;35.47;;;-2.90;99.90;;;;;;5055910;28;20048;-82
2022/12/18 04:01:33;;;;;;;74.05;35.67;;;-2.90;99.90;;;;;;5039453;28;20048;-82
2022/12/18 04:04:01;;;;;;;69.95;35.03;;;-2.90;99.90;;;;;;5055747;28;20048;-82
2022/12/18 04:06:29;;;;;;;65.43;33.80;;;-2.90;99.90;;;;;;5073948;28;20048;-82
2022/12/18 04:08:57;;;;;;;69.68;35.53;;;-2.90;99.90;;;;;;5073152;28;20044;-82
2022/12/18 04:11:23;;;;;;;69.65;34.42;;;-2.90;99.90;;;;;;5039073;28;20190;-82
2022/12/18 04:13:48;;;;;;;73.57;35.37;;;-2.90;99.90;;;;;;5038763;28;20128;-82
2022/12/18 04:16:14;;;;;;;66.23;33.87;;;-2.90;99.90;;;;;;5022377;28;20131;-82
2022/12/18 04:18:40;;;;;;;63.83;33.10;;;-2.90;99.90;;;;;;5055730;28;20083;-82
2022/12/18 04:21:05;;;;;;;69.67;34.33;;;-3.00;99.90;;;;;;5038883;28;20080;-81
2022/12/18 04:23:31;;;;;;;64.43;32.73;;;-3.00;99.90;;;;;;5055579;28;20051;-82
2022/12/18 04:25:57;;;;;;;68.37;33.27;;;-3.00;99.90;;;;;;5038749;28;20048;-81
2022/12/18 04:28:22;;;;;;;64.70;33.10;;;-3.00;99.90;;;;;;5055580;28;20373;-81
2022/12/18 04:30:48;;;;;;;62.10;33.37;;;-3.00;99.90;;;;;;5058796;28;20051;-81
2022/12/18 04:33:17;;;;;;;59.07;30.07;;;-2.90;99.90;;;;;;5042323;28;20048;-81
2022/12/18 04:35:43;;;;;;;60.40;31.30;;;-2.90;99.90;;;;;;5059073;28;20150;-81
2022/12/18 04:38:10;;;;;;;68.10;33.30;;;-2.90;99.90;;;;;;5076939;28;20091;-80
2022/12/18 04:40:36;;;;;;;58.75;31.63;;;-2.90;99.90;;;;;;5059534;28;20427;-82
2022/12/18 04:43:03;;;;;;;58.70;31.08;;;-3.00;99.90;;;;;;5042246;28;20049;-81
2022/12/18 04:45:30;;;;;;;57.78;28.60;;;-2.90;99.90;;;;;;5058624;28;20083;-80
2022/12/18 04:47:58;;;;;;;59.88;31.08;;;-3.00;99.90;;;;;;5059554;28;20047;-81
2022/12/18 04:50:24;;;;;;;58.78;29.48;;;-3.10;99.90;;;;;;5058779;28;20053;-81
2022/12/18 04:52:49;;;;;;;64.53;33.17;;;-3.20;99.90;;;;;;5042135;28;20052;-81
2022/12/18 04:55:15;;;;;;;57.10;29.07;;;-3.20;99.90;;;;;;5042146;28;20067;-81
2022/12/18 04:57:41;;;;;;;57.63;31.07;;;-3.20;99.90;;;;;;5058642;28;20048;-81
2022/12/18 05:00:07;;;;;;;60.37;31.07;;;-3.20;99.90;;;;;;5058855;28;20127;-80
2022/12/18 05:02:33;;;;;;;55.47;30.00;;;-3.10;99.90;;;;;;5041951;28;20045;-80
2022/12/18 05:04:58;;;;;;;60.47;30.00;;;-3.20;99.90;;;;;;5076168;28;20044;-80
2022/12/18 05:07:24;;;;;;;56.27;29.00;;;-3.20;99.90;;;;;;5042577;28;20106;-80
2022/12/18 05:09:50;;;;;;;59.43;30.70;;;-3.20;99.90;;;;;;5058221;28;20052;-81
2022/12/18 05:12:16;;;;;;;59.90;31.87;;;-3.30;99.90;;;;;;5058272;28;20287;-80
2022/12/18 05:14:41;;;;;;;63.23;31.73;;;-3.30;99.90;;;;;;5059155;28;20044;-80
2022/12/18 05:17:07;;;;;;;57.43;29.03;;;-3.40;99.90;;;;;;5058044;28;20131;-80
2022/12/18 05:19:33;;;;;;;57.00;30.83;;;-3.40;99.90;;;;;;5042443;28;20041;-80
2022/12/18 05:21:59;;;;;;;58.57;29.67;;;-3.50;99.90;;;;;;5075779;28;20049;-80
2022/12/18 05:24:24;;;;;;;54.67;27.87;;;-3.40;99.90;;;;;;5042330;28;20041;-80
2022/12/18 05:26:50;;;;;;;54.87;27.40;;;-3.40;99.90;;;;;;5057993;28;20392;-80
2022/12/18 05:29:16;;;;;;;57.40;28.17;;;-3.30;99.90;;;;;;5075586;28;20040;-79
2022/12/18 05:31:41;;;;;;;55.73;27.63;;;-3.30;99.90;;;;;;5058040;28;20111;-80
2022/12/18 05:34:07;;;;;;;52.67;27.73;;;-3.30;99.90;;;;;;5041904;28;20066;-80
2022/12/18 05:36:33;;;;;;;47.80;26.57;;;-3.40;99.90;;;;;;5057953;28;20041;-80
2022/12/18 05:39:00;;;;;;;47.97;25.40;;;-3.30;99.90;;;;;;5075171;28;20064;-80
2022/12/18 05:41:26;;;;;;;51.17;25.50;;;-3.30;99.90;;;;;;5040523;28;20056;-80
2022/12/18 05:43:51;;;;;;;48.85;25.17;;;-3.30;99.90;;;;;;5058048;28;20048;-80
2022/12/18 05:46:17;;;;;;;46.37;24.73;;;-3.20;99.90;;;;;;5075420;28;20040;-79
2022/12/18 05:48:44;;;;;;;50.28;25.80;;;-3.20;99.90;;;;;;5057422;28;20044;-80
2022/12/18 05:51:16;;;;;;;47.30;24.33;;;-3.20;99.90;;;;;;5041093;28;20127;-79
2022/12/18 05:53:42;;;;;;;47.33;25.08;;;-3.20;99.90;;;;;;5057605;28;20048;-80
2022/12/18 05:56:10;;;;;;;50.60;25.35;;;-3.10;99.90;;;;;;5075774;28;20048;-79
2022/12/18 05:58:37;;;;;;;45.95;23.65;;;-3.10;99.90;;;;;;5057319;28;20040;-79
2022/12/18 06:01:11;;;;;;;47.67;24.88;;;-3.10;99.90;;;;;;5075196;28;20056;-80
2022/12/18 06:03:37;;;;;;;43.30;24.25;;;-3.10;99.90;;;;;;5057273;28;20048;-78
2022/12/18 06:06:03;;;;;;;47.37;22.93;;;-3.10;99.90;;;;;;5041623;28;20038;-78
2022/12/18 06:08:29;;;;;;;43.90;23.15;;;-3.20;99.90;;;;;;5074558;28;20052;-78
2022/12/18 06:10:55;;;;;;;44.17;22.13;;;-3.30;99.90;;;;;;5040348;28;20092;-78
2022/12/18 06:13:21;;;;;;;46.07;23.27;;;-3.30;99.90;;;;;;5075218;28;20049;-78
2022/12/18 06:15:47;;;;;;;49.57;23.57;;;-3.40;99.90;;;;;;5057497;28;20492;-78
2022/12/18 06:18:12;;;;;;;44.97;24.15;;;-3.40;99.90;;;;;;5040645;28;20056;-78
2022/12/18 06:20:41;;;;;;;42.60;22.63;;;-3.50;99.90;;;;;;5075325;28;20389;-78
2022/12/18 06:23:06;;;;;;;44.00;22.58;;;-3.50;99.90;;;;;;5056968;28;20139;-78
2022/12/18 06:25:32;;;;;;;46.80;22.90;;;-3.60;99.90;;;;;;5040409;28;20133;-78
2022/12/18 06:27:59;;;;;;;44.23;23.73;;;-3.60;99.90;;;;;;5074542;28;20052;-78
2022/12/18 06:30:25;;;;;;;41.03;22.90;;;-3.60;99.90;;;;;;5056608;28;20647;-77
2022/12/18 06:32:51;;;;;;;44.50;22.48;;;-3.60;99.90;;;;;;5040285;28;20060;-78
2022/12/18 06:35:16;;;;;;;42.38;21.23;;;-3.60;99.90;;;;;;5074942;28;20051;-77
2022/12/18 06:37:42;;;;;;;39.70;20.73;;;-3.70;99.90;;;;;;5074652;28;20056;-77
2022/12/18 06:40:08;;;;;;;44.30;22.10;;;-3.70;99.90;;;;;;5056508;28;20056;-78
2022/12/18 06:42:34;;;;;;;43.38;21.48;;;-3.70;99.90;;;;;;5056793;28;20389;-77
2022/12/18 06:44:59;;;;;;;41.10;21.23;;;-3.70;99.90;;;;;;5056354;28;20045;-77
2022/12/18 06:47:25;;;;;;;44.93;21.67;;;-3.70;99.90;;;;;;5074017;28;20044;-77
2022/12/18 06:49:51;;;;;;;38.10;20.60;;;-3.70;99.90;;;;;;5056327;28;20036;-77
2022/12/18 06:52:16;;;;;;;43.03;21.60;;;-3.80;99.90;;;;;;5056255;28;20075;-77
2022/12/18 06:54:42;;;;;;;35.77;19.43;;;-3.80;99.90;;;;;;5073995;28;20487;-77
2022/12/18 06:57:08;;;;;;;36.83;18.67;;;-3.80;99.90;;;;;;5056110;28;20040;-77
2022/12/18 06:59:33;;;;;;;39.70;20.50;;;-3.80;99.90;;;;;;5055871;28;20128;-77
2022/12/18 07:01:59;;;;;;;40.80;21.70;;;-3.80;99.90;;;;;;5056449;28;20040;-78
2022/12/18 07:04:31;;;;;;;38.53;19.77;;;-3.80;99.90;;;;;;5039516;28;20470;-77
2022/12/18 07:06:57;;;;;;;41.42;20.88;;;-3.80;99.90;;;;;;5056068;28;20369;-77
2022/12/18 07:09:23;;;;;;;42.13;20.83;;;-3.80;99.90;;;;;;5073809;28;20047;-77
2022/12/18 07:11:49;;;;;;;38.15;20.48;;;-3.80;99.90;;;;;;5073837;28;20045;-78
2022/12/18 07:14:15;;;;;;;42.23;21.83;;;-3.90;99.90;;;;;;5073680;28;20048;-78
2022/12/18 07:16:40;;;;;;;34.93;19.90;;;-3.90;99.90;;;;;;5039561;28;20058;-77
2022/12/18 07:19:06;;;;;;;38.90;18.17;;;-3.90;99.90;;;;;;5039329;28;20049;-78
2022/12/18 07:21:32;;;;;;;38.47;19.83;;;-4.00;99.90;;;;;;5056501;28;20059;-78
2022/12/18 07:23:58;;;;;;;41.47;19.70;;;-4.00;99.90;;;;;;5073582;28;20049;-78
2022/12/18 07:26:23;;;;;;;35.97;19.70;;;-4.00;99.90;;;;;;5039365;28;20374;-78
2022/12/18 07:28:50;;;;;;;37.50;19.47;;;-3.90;99.90;;;;;;5055647;28;20044;-77
2022/12/18 07:31:21;;;;;;;38.10;21.02;;;-4.00;99.90;;;;;;5039579;28;20052;-78
2022/12/18 07:33:47;;;;;;;39.22;19.77;;;-4.00;99.90;;;;;;5073589;28;20088;-77
2022/12/18 07:36:14;;;;;;;41.22;21.63;;;-3.90;99.90;;;;;;5074272;28;20055;-78
2022/12/18 07:38:40;;;;;;;40.03;19.90;;;-3.90;99.90;;;;;;5055366;28;20111;-78
2022/12/18 07:41:11;;;;;;;43.20;19.92;;;-3.90;99.90;;;;;;5055675;28;20052;-78
2022/12/18 07:43:37;;;;;;;36.35;19.23;;;-3.90;99.90;;;;;;5055622;28;20055;-78
2022/12/18 07:46:04;;;;;;;39.58;19.90;;;-3.90;99.90;;;;;;5039030;28;20123;-78
2022/12/18 07:48:30;;;;;;;39.17;20.00;;;-3.80;99.90;;;;;;5039009;28;20139;-78
2022/12/18 07:51:04;;;;;;;35.75;20.08;;;-3.80;99.90;;;;;;5073338;28;20086;-79
2022/12/18 07:53:30;;;;;;;37.20;19.35;;;-3.80;99.90;;;;;;5074196;28;20385;-78
2022/12/18 07:56:01;;;;;;;37.05;18.38;;;-3.70;99.90;;;;;;5073285;28;20135;-79
2022/12/18 07:58:28;;;;;;;35.80;17.08;;;-3.70;99.90;;;;;;5055566;28;20163;-78
2022/12/18 08:00:53;;;;;;;33.72;18.17;;;-3.70;99.90;;;;;;5073223;28;20049;-78
2022/12/18 08:03:20;;;;;;;34.23;18.97;;;-3.70;99.90;;;;;;5022951;28;20205;-78
2022/12/18 08:05:48;;;;;;;34.75;17.35;;;-3.60;99.90;;;;;;5059338;28;20554;-78
2022/12/18 08:08:14;;;;;;;33.03;18.02;;;-3.60;99.90;;;;;;5059352;28;20512;-78
2022/12/18 08:10:40;;;;;;;33.90;18.13;;;-3.60;99.90;;;;;;5059251;28;20080;-76
2022/12/18 08:13:06;;;;;;;32.50;17.23;;;-3.50;99.90;;;;;;5060014;28;20040;-75
2022/12/18 08:15:31;;;;;;;34.60;17.93;;;-3.50;99.90;;;;;;5077341;28;20075;-78
2022/12/18 08:17:57;;;;;;;31.70;17.43;;;-3.50;99.90;;;;;;5059637;28;20052;-80
2022/12/18 08:20:23;;;;;;;35.10;18.27;;;-3.50;99.90;;;;;;5059357;28;20102;-79
2022/12/18 08:22:49;;;;;;;36.70;19.90;;;-3.40;99.90;;;;;;5059633;28;20046;-79
2022/12/18 08:25:14;;;;;;;36.63;19.10;;;-3.40;99.90;;;;;;5042521;28;20123;-80
2022/12/18 08:27:40;;;;;;;31.87;17.50;;;-3.30;99.90;;;;;;5042378;28;20404;-77
2022/12/18 08:30:06;;;;;;;31.87;17.80;;;-3.40;99.90;;;;;;5058919;28;20048;-77
2022/12/18 08:32:32;;;;;;;30.55;16.42;;;-3.30;99.90;;;;;;5060763;28;20056;-77
2022/12/18 08:34:58;;;;;;;33.85;17.67;;;-3.30;99.90;;;;;;5059080;28;20461;-78
2022/12/18 08:37:24;;;;;;;32.35;17.35;;;-3.20;99.90;;;;;;5059786;28;20473;-77
2022/12/18 08:39:50;;;;;;;33.60;17.53;;;-3.30;99.90;;;;;;5058366;28;20143;-78
2022/12/18 08:45:01;;;;;;;29.10;15.77;;;-3.10;99.90;;;;;;5059642;28;20049;-83
2022/12/18 08:47:26;;;;;;;28.23;15.07;;;-3.10;99.90;;;;;;5077162;28;20075;-80
2022/12/18 08:49:52;;;;;;;30.77;17.33;;;-3.10;99.90;;;;;;5058831;28;20484;-81
2022/12/18 08:52:18;;;;;;;29.50;16.33;;;-3.00;99.90;;;;;;5075926;28;20294;-80
2022/12/18 08:54:50;;;;;;;33.58;17.85;;;-3.10;99.90;;;;;;5076450;28;20101;-77
2022/12/18 08:57:15;;;;;;;31.20;15.20;;;-3.00;99.90;;;;;;5075957;28;20037;-79
2022/12/18 08:59:41;;;;;;;30.33;16.60;;;-2.90;99.90;;;;;;5076324;28;20040;-80
2022/12/18 09:02:10;;;;;;;29.13;15.63;;;-2.90;99.90;;;;;;5042046;28;20051;-79
2022/12/18 09:04:35;;;;;;;26.05;15.70;;;-2.80;99.90;;;;;;5076145;28;20286;-79
2022/12/18 09:07:01;;;;;;;27.87;14.83;;;-2.80;99.90;;;;;;5058572;28;20048;-77
2022/12/18 09:09:27;;;;;;;25.17;13.50;;;-2.70;99.90;;;;;;5058921;28;20122;-77
2022/12/18 09:11:52;;;;;;;25.47;13.80;;;-2.60;99.90;;;;;;5076588;28;20491;-78
2022/12/18 09:14:18;;;;;;;26.77;13.73;;;-2.60;99.90;;;;;;5075794;28;20469;-79
2022/12/18 09:16:44;;;;;;;27.57;14.57;;;-2.50;99.90;;;;;;5076777;28;20051;-77
2022/12/18 09:19:10;;;;;;;22.97;12.73;;;-2.50;99.90;;;;;;5058065;28;20059;-80
2022/12/18 09:21:35;;;;;;;25.57;14.47;;;-2.40;99.90;;;;;;5058789;28;20534;-78
2022/12/18 09:24:01;;;;;;;22.07;13.53;;;-2.40;99.90;;;;;;5075774;28;20044;-78
2022/12/18 09:26:27;;;;;;;25.90;15.67;;;-2.30;99.90;;;;;;5057831;28;20051;-80
2022/12/18 09:28:53;;;;;;;24.25;14.30;;;-2.20;99.90;;;;;;5060210;28;20044;-78
2022/12/18 09:31:22;;;;;;;24.73;14.45;;;-2.20;99.90;;;;;;5075922;28;20131;-78
2022/12/18 09:33:48;;;;;;;25.15;13.45;;;-2.10;99.90;;;;;;5075598;28;20084;-76
2022/12/18 09:36:16;;;;;;;24.10;13.07;;;-2.00;99.90;;;;;;5058194;28;20053;-77
2022/12/18 09:38:42;;;;;;;25.25;13.00;;;-2.00;99.90;;;;;;5075648;28;20068;-80
2022/12/18 09:41:32;;;;;;;24.70;14.17;;;-2.00;99.90;;;;;;5075453;28;20542;-79
2022/12/18 09:44:02;;;;;;;23.27;13.30;;;-2.00;99.90;;;;;;5075847;28;20084;-80
2022/12/18 09:46:35;;;;;;;24.48;13.88;;;-1.90;99.90;;;;;;5075698;28;20118;-80
2022/12/18 09:49:05;;;;;;;20.70;13.45;;;-1.90;99.90;;;;;;5057507;28;20431;-80
2022/12/18 09:51:37;;;;;;;24.60;13.10;;;-1.90;99.90;;;;;;5057599;28;20080;-79
2022/12/18 09:54:38;;;;;;;25.40;13.90;;;-1.90;99.90;;;;;;5075590;28;20048;-77
2022/12/18 09:57:04;;;;;;;22.13;13.13;;;-1.90;99.90;;;;;;5005356;28;20123;-78
2022/12/18 09:59:36;;;;;;;21.13;12.48;;;-1.90;99.90;;;;;;5057906;28;20044;-78
2022/12/18 10:02:23;;;;;;;18.98;12.02;;;-1.90;99.90;;;;;;5075231;28;20052;-79
2022/12/18 10:05:14;;;;;;;22.80;13.07;;;-1.90;99.90;;;;;;5075976;28;20076;-78
2022/12/18 10:08:07;;;;;;;23.23;13.68;;;-1.90;99.90;;;;;;5027470;28;20493;-76
2022/12/18 10:10:57;;;;;;;22.98;13.23;;;-1.90;99.90;;;;;;5057318;28;20063;-76
2022/12/18 10:13:39;;;;;;;21.58;13.77;;;-1.90;99.90;;;;;;5075454;28;20059;-75
2022/12/18 10:16:27;;;;;;;20.90;12.40;;;-2.00;99.90;;;;;;5057110;28;20051;-75
2022/12/18 10:18:58;;;;;;;21.05;12.77;;;-2.00;99.90;;;;;;5074831;28;20040;-75
2022/12/18 10:21:39;;;;;;;18.10;11.35;;;-1.90;99.90;;;;;;5074385;28;20507;-76
2022/12/18 10:24:25;;;;;;;20.02;11.68;;;-1.80;99.90;;;;;;5074720;28;20056;-75
2022/12/18 10:26:56;;;;;;;18.05;10.50;;;-1.90;99.90;;;;;;5074169;28;20052;-76
2022/12/18 10:29:22;;;;;;;18.17;11.07;;;-1.90;99.90;;;;;;5074526;28;20039;-74
2022/12/18 10:31:48;;;;;;;24.10;14.05;;;-1.80;99.90;;;;;;5074617;28;20056;-73
2022/12/18 10:34:14;;;;;;;21.67;12.23;;;-1.80;99.90;;;;;;5075263;28;20037;-80
2022/12/18 10:36:40;;;;;;;19.05;11.38;;;-1.80;99.90;;;;;;5057281;28;20090;-77
2022/12/18 10:39:35;;;;;;;21.63;11.60;;;-1.80;99.90;;;;;;5074641;28;20059;-77
2022/12/18 10:42:15;;;;;;;16.98;10.20;;;-1.80;99.90;;;;;;5053338;28;20055;-77
2022/12/18 10:44:41;;;;;;;19.67;12.23;;;-1.80;99.90;;;;;;5074312;28;20123;-78
2022/12/18 10:47:15;;;;;;;22.43;12.97;;;-1.80;99.90;;;;;;5056895;28;20183;-76
2022/12/18 10:49:52;;;;;;;21.65;13.98;;;-1.80;99.90;;;;;;5057099;28;20087;-75
2022/12/18 10:52:24;;;;;;;23.17;14.32;;;-1.70;99.90;;;;;;5057122;28;20460;-77
2022/12/18 10:54:52;;;;;;;22.42;13.50;;;-1.70;99.90;;;;;;5074420;28;20048;-74
2022/12/18 10:57:38;;;;;;;22.70;12.95;;;-1.70;99.90;;;;;;5073989;28;20040;-78
2022/12/18 11:00:20;;;;;;;19.83;12.68;;;-1.70;99.90;;;;;;5073949;28;20044;-74
2022/12/18 11:02:46;;;;;;;21.63;12.57;;;-1.70;99.90;;;;;;5073588;28;20437;-78
2022/12/18 11:05:28;;;;;;;21.87;12.30;;;-1.60;99.90;;;;;;5056222;28;20052;-75
2022/12/18 11:07:55;;;;;;;20.33;12.02;;;-1.60;99.90;;;;;;5056461;28;20045;-76
2022/12/18 11:10:32;;;;;;;19.20;11.55;;;-1.60;99.90;;;;;;5056882;28;20102;-73
2022/12/18 11:13:16;;;;;;;18.90;11.05;;;-1.50;99.90;;;;;;5073865;28;20052;-74
2022/12/18 11:15:42;;;;;;;21.02;12.02;;;-1.50;99.90;;;;;;5074559;28;20563;-72
2022/12/18 11:18:19;;;;;;;19.53;12.13;;;-1.50;99.90;;;;;;5073661;28;20044;-73
2022/12/18 11:20:52;;;;;;;19.38;11.80;;;-1.40;99.90;;;;;;5073594;28;20063;-77
2022/12/18 11:23:20;;;;;;;18.67;11.98;;;-1.50;99.90;;;;;;5073852;28;20045;-78
2022/12/18 11:26:01;;;;;;;19.30;10.90;;;-1.50;99.90;;;;;;5039544;28;20048;-72
2022/12/18 11:28:51;;;;;;;17.80;11.50;;;-1.40;99.90;;;;;;5055828;28;20143;-75
2022/12/18 11:31:28;;;;;;;17.92;10.73;;;-1.40;99.90;;;;;;5055767;28;20052;-77
2022/12/18 11:34:09;;;;;;;17.45;11.07;;;-1.40;99.90;;;;;;5073624;28;20489;-76
2022/12/18 11:36:44;;;;;;;19.23;11.98;;;-1.40;99.90;;;;;;5055954;28;20472;-80
2022/12/18 11:39:25;;;;;;;;;;;-1.40;99.90;;;;;;5055014;28;20048;-77
2022/12/18 11:42:11;;;;;;;20.08;10.60;;;-1.40;99.90;;;;;;5074508;28;20002;-75
2022/12/18 11:44:48;;;;;;;28.42;15.80;;;-1.40;99.90;;;;;;5073574;28;20048;-77
2022/12/18 11:47:39;;;;;;;19.38;13.48;;;-1.30;99.90;;;;;;5056117;28;20097;-77
2022/12/18 11:50:18;;;;;;;16.38;10.50;;;-1.30;99.90;;;;;;5073320;28;20152;-76
2022/12/18 11:52:44;;;;;;;17.08;11.45;;;-1.30;99.90;;;;;;5073994;28;20153;-75
2022/12/18 11:55:17;;;;;;;21.65;11.55;;;-1.30;99.90;;;;;;5055472;28;20056;-75
2022/12/18 11:57:59;;;;;;;18.55;11.10;;;-1.20;99.90;;;;;;5056264;28;20055;-79
2022/12/18 12:00:25;;;;;;;15.77;10.57;;;-1.20;99.90;;;;;;5057513;28;20045;-78
2022/12/18 12:03:06;;;;;;;16.30;9.80;;;-1.20;99.90;;;;;;5039163;28;20078;-78
2022/12/18 12:06:04;;;;;;;17.30;10.38;;;-1.20;99.90;;;;;;5055805;28;20094;-78
2022/12/18 12:08:40;;;;;;;16.88;10.02;;;-1.10;99.90;;;;;;5054465;28;20080;-77
2022/12/18 12:11:32;;;;;;;18.33;10.48;;;-1.20;99.90;;;;;;5073931;28;20106;-76
2022/12/18 12:14:28;;;;;;;18.73;10.95;;;-1.10;99.90;;;;;;5054706;28;20053;-78
2022/12/18 12:16:53;;;;;;;15.10;9.98;;;-1.10;99.90;;;;;;5073137;28;20060;-79
2022/12/18 12:19:47;;;;;;;17.57;9.40;;;-1.10;99.90;;;;;;5073504;28;20089;-78
2022/12/18 12:22:26;;;;;;;14.38;8.77;;;-1.10;99.90;;;;;;5055256;28;20045;-78
2022/12/18 12:25:10;;;;;;;14.98;8.07;;;-1.10;99.90;;;;;;5056068;28;20063;-79
2022/12/18 12:27:45;;;;;;;14.30;9.48;;;-1.00;99.90;;;;;;5072843;28;20049;-77
2022/12/18 12:30:21;;;;;;;13.00;8.00;;;-1.00;99.90;;;;;;5073770;28;20049;-80
2022/12/18 12:33:28;;;;;;;15.30;9.05;;;-1.00;99.90;;;;;;5055986;28;20129;-76
2022/12/18 12:36:09;;;;;;;14.25;7.85;;;-0.90;99.90;;;;;;5055117;28;20087;-79
2022/12/18 12:38:50;;;;;;;14.07;7.97;;;-0.90;99.90;;;;;;5073001;28;20487;-77
2022/12/18 12:44:09;;;;;;;12.43;6.95;;;-0.80;99.90;;;;;;5073408;28;20469;-79
2022/12/18 12:46:39;;;;;;;14.43;6.95;;;-0.80;99.90;;;;;;5073486;28;20060;-82
2022/12/18 12:49:13;;;;;;;12.02;8.25;;;-0.80;99.90;;;;;;5072694;28;20124;-77
2022/12/18 12:51:43;;;;;;;11.68;6.47;;;-0.80;99.90;;;;;;5076461;28;20052;-78